Login to view Products
 
Saturday, May 28, 2022 (09:42 UTC)
Ras Al Khaimah International Airport
ICAO: OMRK
IATA: RKT
  • METAR OMRK 280900Z VRB02KT CAVOK 42/11 Q1001 A2958=
  • TAF OMRK 280500Z 2806/2912 20008KT CAVOK BECMG 2808/2810 34013KT BECMG 2815/2817 17005KT BECMG 2908/2910 33013KT=
09-- D:\Input Parser\Destinations\Final\05\OMRK_TAF.txt-- 28/05/2022-- 28/05/2022-- 3